sensor_id;sensor_type;location;lat;lon;timestamp;pressure;altitude;pressure_sealevel;temperature;humidity
37066;BME280;22981;43.080;25.550;2024-01-11T00:00:06;100929.09;;;-7.94;65.13
37066;BME280;22981;43.080;25.550;2024-01-11T00:02:34;100931.83;;;-7.87;65.04
37066;BME280;22981;43.080;25.550;2024-01-11T00:05:01;100931.17;;;-7.82;64.94
37066;BME280;22981;43.080;25.550;2024-01-11T00:07:29;100930.97;;;-7.77;64.86
37066;BME280;22981;43.080;25.550;2024-01-11T00:09:57;100933.84;;;-7.84;64.78
37066;BME280;22981;43.080;25.550;2024-01-11T00:12:24;100926.22;;;-7.88;65.00
37066;BME280;22981;43.080;25.550;2024-01-11T00:14:52;100925.58;;;-7.93;64.93
37066;BME280;22981;43.080;25.550;2024-01-11T00:17:19;100925.60;;;-8.03;65.03
37066;BME280;22981;43.080;25.550;2024-01-11T00:19:47;100925.16;;;-8.13;65.15
37066;BME280;22981;43.080;25.550;2024-01-11T00:22:15;100929.17;;;-8.16;65.34
37066;BME280;22981;43.080;25.550;2024-01-11T00:24:42;100922.94;;;-8.12;65.37
37066;BME280;22981;43.080;25.550;2024-01-11T00:27:10;100931.38;;;-8.07;65.41
37066;BME280;22981;43.080;25.550;2024-01-11T00:29:38;100926.90;;;-8.03;65.31
37066;BME280;22981;43.080;25.550;2024-01-11T00:32:05;100929.42;;;-8.02;65.24
37066;BME280;22981;43.080;25.550;2024-01-11T00:34:33;100931.72;;;-8.04;65.27
37066;BME280;22981;43.080;25.550;2024-01-11T00:37:02;100923.46;;;-8.04;65.33
37066;BME280;22981;43.080;25.550;2024-01-11T00:39:30;100928.96;;;-8.01;65.29
37066;BME280;22981;43.080;25.550;2024-01-11T00:41:57;100924.22;;;-8.02;65.30
37066;BME280;22981;43.080;25.550;2024-01-11T00:44:25;100922.66;;;-8.06;65.29
37066;BME280;22981;43.080;25.550;2024-01-11T00:46:52;100926.30;;;-8.10;65.41
37066;BME280;22981;43.080;25.550;2024-01-11T00:49:21;100921.10;;;-8.10;65.46
37066;BME280;22981;43.080;25.550;2024-01-11T00:51:48;100922.81;;;-8.09;65.52
37066;BME280;22981;43.080;25.550;2024-01-11T00:54:16;100920.98;;;-8.07;65.53
37066;BME280;22981;43.080;25.550;2024-01-11T00:56:44;100909.93;;;-8.02;65.58
37066;BME280;22981;43.080;25.550;2024-01-11T00:59:11;100910.52;;;-7.95;65.53
37066;BME280;22981;43.080;25.550;2024-01-11T01:01:39;100905.05;;;-7.89;65.48
37066;BME280;22981;43.080;25.550;2024-01-11T01:04:06;100906.34;;;-7.89;65.43
37066;BME280;22981;43.080;25.550;2024-01-11T01:06:34;100906.59;;;-7.85;65.43
37066;BME280;22981;43.080;25.550;2024-01-11T01:09:01;100910.30;;;-7.81;65.44
37066;BME280;22981;43.080;25.550;2024-01-11T01:11:29;100903.20;;;-7.77;65.39
37066;BME280;22981;43.080;25.550;2024-01-11T01:13:56;100894.65;;;-7.79;65.34
37066;BME280;22981;43.080;25.550;2024-01-11T01:16:24;100896.53;;;-7.83;65.40
37066;BME280;22981;43.080;25.550;2024-01-11T01:18:51;100887.44;;;-7.83;65.50
37066;BME280;22981;43.080;25.550;2024-01-11T01:21:19;100880.40;;;-7.81;65.50
37066;BME280;22981;43.080;25.550;2024-01-11T01:23:47;100876.95;;;-7.81;65.50
37066;BME280;22981;43.080;25.550;2024-01-11T01:26:14;100869.95;;;-7.89;65.51
37066;BME280;22981;43.080;25.550;2024-01-11T01:28:42;100870.74;;;-7.97;65.64
37066;BME280;22981;43.080;25.550;2024-01-11T01:31:10;100865.29;;;-8.01;65.78
37066;BME280;22981;43.080;25.550;2024-01-11T01:33:39;100868.22;;;-7.99;65.87
37066;BME280;22981;43.080;25.550;2024-01-11T01:36:13;100860.09;;;-8.01;65.85
37066;BME280;22981;43.080;25.550;2024-01-11T01:38:40;100855.05;;;-8.04;65.88
37066;BME280;22981;43.080;25.550;2024-01-11T01:41:08;100855.09;;;-8.06;65.99
37066;BME280;22981;43.080;25.550;2024-01-11T01:43:35;100850.23;;;-8.03;66.06
37066;BME280;22981;43.080;25.550;2024-01-11T01:46:04;100845.34;;;-8.01;66.03
37066;BME280;22981;43.080;25.550;2024-01-11T01:48:33;100843.70;;;-7.93;66.06
37066;BME280;22981;43.080;25.550;2024-01-11T01:51:02;100833.35;;;-7.85;65.96
37066;BME280;22981;43.080;25.550;2024-01-11T01:53:30;100835.61;;;-7.77;65.82
37066;BME280;22981;43.080;25.550;2024-01-11T01:55:58;100830.20;;;-7.72;65.78
37066;BME280;22981;43.080;25.550;2024-01-11T01:58:25;100827.09;;;-7.70;65.71
37066;BME280;22981;43.080;25.550;2024-01-11T02:00:53;100824.55;;;-7.72;65.70
37066;BME280;22981;43.080;25.550;2024-01-11T02:03:21;100824.38;;;-7.77;65.79
37066;BME280;22981;43.080;25.550;2024-01-11T02:05:50;100815.02;;;-7.82;65.80
37066;BME280;22981;43.080;25.550;2024-01-11T02:08:20;100816.75;;;-7.91;65.88
37066;BME280;22981;43.080;25.550;2024-01-11T02:10:50;100810.72;;;-8.01;65.98
37066;BME280;22981;43.080;25.550;2024-01-11T02:13:17;100818.80;;;-8.08;66.18
37066;BME280;22981;43.080;25.550;2024-01-11T02:15:45;100810.80;;;-8.03;66.26
37066;BME280;22981;43.080;25.550;2024-01-11T02:18:13;100806.18;;;-7.96;66.21
37066;BME280;22981;43.080;25.550;2024-01-11T02:20:41;100799.84;;;-7.91;66.19
37066;BME280;22981;43.080;25.550;2024-01-11T02:23:12;100797.55;;;-7.88;66.20
37066;BME280;22981;43.080;25.550;2024-01-11T02:25:39;100798.47;;;-7.89;66.14
37066;BME280;22981;43.080;25.550;2024-01-11T02:28:06;100799.81;;;-7.99;66.12
37066;BME280;22981;43.080;25.550;2024-01-11T02:30:35;100803.28;;;-8.09;66.34
37066;BME280;22981;43.080;25.550;2024-01-11T02:33:02;100805.17;;;-8.13;66.51
37066;BME280;22981;43.080;25.550;2024-01-11T02:35:31;100799.05;;;-8.12;66.65
37066;BME280;22981;43.080;25.550;2024-01-11T02:38:00;100793.52;;;-8.04;66.67
37066;BME280;22981;43.080;25.550;2024-01-11T02:40:28;100793.10;;;-7.95;66.56
37066;BME280;22981;43.080;25.550;2024-01-11T02:42:56;100791.38;;;-7.86;66.44
37066;BME280;22981;43.080;25.550;2024-01-11T02:45:24;100793.90;;;-7.84;66.31
37066;BME280;22981;43.080;25.550;2024-01-11T02:47:51;100794.66;;;-7.91;66.21
37066;BME280;22981;43.080;25.550;2024-01-11T02:50:19;100793.82;;;-8.01;66.34
37066;BME280;22981;43.080;25.550;2024-01-11T02:52:46;100790.59;;;-8.07;66.47
37066;BME280;22981;43.080;25.550;2024-01-11T02:55:14;100790.47;;;-8.14;66.58
37066;BME280;22981;43.080;25.550;2024-01-11T02:57:41;100785.05;;;-8.18;66.76
37066;BME280;22981;43.080;25.550;2024-01-11T03:00:09;100778.34;;;-8.13;66.86
37066;BME280;22981;43.080;25.550;2024-01-11T03:02:37;100776.76;;;-8.07;66.85
37066;BME280;22981;43.080;25.550;2024-01-11T03:05:05;100769.22;;;-8.03;66.81
37066;BME280;22981;43.080;25.550;2024-01-11T03:07:33;100770.30;;;-7.98;66.78
37066;BME280;22981;43.080;25.550;2024-01-11T03:10:00;100770.68;;;-7.97;66.71
37066;BME280;22981;43.080;25.550;2024-01-11T03:12:28;100766.02;;;-7.99;66.75
37066;BME280;22981;43.080;25.550;2024-01-11T03:14:55;100762.97;;;-7.99;66.74
37066;BME280;22981;43.080;25.550;2024-01-11T03:17:23;100757.39;;;-8.00;66.66
37066;BME280;22981;43.080;25.550;2024-01-11T03:19:50;100759.58;;;-8.01;66.62
37066;BME280;22981;43.080;25.550;2024-01-11T03:22:18;100759.14;;;-8.00;66.61
37066;BME280;22981;43.080;25.550;2024-01-11T03:24:45;100751.34;;;-8.00;66.58
37066;BME280;22981;43.080;25.550;2024-01-11T03:27:13;100743.55;;;-8.00;66.53
37066;BME280;22981;43.080;25.550;2024-01-11T03:29:41;100739.58;;;-7.99;66.49
37066;BME280;22981;43.080;25.550;2024-01-11T03:32:08;100739.58;;;-7.99;66.45
37066;BME280;22981;43.080;25.550;2024-01-11T03:34:37;100738.27;;;-7.99;66.47
37066;BME280;22981;43.080;25.550;2024-01-11T03:37:05;100737.56;;;-8.02;66.47
37066;BME280;22981;43.080;25.550;2024-01-11T03:39:33;100724.58;;;-8.02;66.55
37066;BME280;22981;43.080;25.550;2024-01-11T03:42:01;100734.97;;;-8.02;66.51
37066;BME280;22981;43.080;25.550;2024-01-11T03:44:30;100725.50;;;-8.03;66.47
37066;BME280;22981;43.080;25.550;2024-01-11T03:46:58;100729.52;;;-8.07;66.52
37066;BME280;22981;43.080;25.550;2024-01-11T03:49:26;100723.70;;;-8.12;66.58
37066;BME280;22981;43.080;25.550;2024-01-11T03:51:53;100728.81;;;-8.10;66.65
37066;BME280;22981;43.080;25.550;2024-01-11T03:54:21;100720.52;;;-8.08;66.61
37066;BME280;22981;43.080;25.550;2024-01-11T03:56:48;100720.52;;;-8.08;66.49
37066;BME280;22981;43.080;25.550;2024-01-11T03:59:16;100719.88;;;-8.13;66.44
37066;BME280;22981;43.080;25.550;2024-01-11T04:01:43;100719.64;;;-8.27;66.35
37066;BME280;22981;43.080;25.550;2024-01-11T04:04:11;100717.58;;;-8.38;66.61
37066;BME280;22981;43.080;25.550;2024-01-11T04:06:39;100719.80;;;-8.39;66.77
37066;BME280;22981;43.080;25.550;2024-01-11T04:09:07;100713.91;;;-8.34;66.79
37066;BME280;22981;43.080;25.550;2024-01-11T04:11:34;100707.66;;;-8.30;66.72
37066;BME280;22981;43.080;25.550;2024-01-11T04:14:02;100704.90;;;-8.27;66.61
37066;BME280;22981;43.080;25.550;2024-01-11T04:16:29;100706.06;;;-8.24;66.55
37066;BME280;22981;43.080;25.550;2024-01-11T04:18:58;100690.10;;;-8.25;66.45
37066;BME280;22981;43.080;25.550;2024-01-11T04:21:27;100700.00;;;-8.33;66.42
37066;BME280;22981;43.080;25.550;2024-01-11T04:23:57;100699.28;;;-8.45;66.54
37066;BME280;22981;43.080;25.550;2024-01-11T04:26:25;100694.04;;;-8.54;66.76
37066;BME280;22981;43.080;25.550;2024-01-11T04:28:53;100690.98;;;-8.53;66.82
37066;BME280;22981;43.080;25.550;2024-01-11T04:31:20;100698.67;;;-8.61;66.75
37066;BME280;22981;43.080;25.550;2024-01-11T04:33:48;100695.03;;;-8.67;66.81
37066;BME280;22981;43.080;25.550;2024-01-11T04:36:16;100697.38;;;-8.71;66.98
37066;BME280;22981;43.080;25.550;2024-01-11T04:38:43;100698.59;;;-8.69;66.99
37066;BME280;22981;43.080;25.550;2024-01-11T04:41:12;100698.02;;;-8.66;67.00
37066;BME280;22981;43.080;25.550;2024-01-11T04:43:44;100690.81;;;-8.59;66.98
37066;BME280;22981;43.080;25.550;2024-01-11T04:46:23;100693.20;;;-8.54;66.85
37066;BME280;22981;43.080;25.550;2024-01-11T04:48:48;100697.64;;;-8.48;66.74
37066;BME280;22981;43.080;25.550;2024-01-11T04:51:17;100690.11;;;-8.44;66.70
37066;BME280;22981;43.080;25.550;2024-01-11T04:53:45;100690.36;;;-8.40;66.63
37066;BME280;22981;43.080;25.550;2024-01-11T04:56:15;100686.03;;;-8.39;66.58
37066;BME280;22981;43.080;25.550;2024-01-11T04:58:45;100687.92;;;-8.43;66.52
37066;BME280;22981;43.080;25.550;2024-01-11T05:01:13;100685.41;;;-8.54;66.42
37066;BME280;22981;43.080;25.550;2024-01-11T05:03:41;100683.81;;;-8.67;66.53
37066;BME280;22981;43.080;25.550;2024-01-11T05:06:17;100682.92;;;-8.76;66.77
37066;BME280;22981;43.080;25.550;2024-01-11T05:08:50;100685.90;;;-8.75;66.93
37066;BME280;22981;43.080;25.550;2024-01-11T05:11:23;100675.23;;;-8.69;66.91
37066;BME280;22981;43.080;25.550;2024-01-11T05:13:52;100673.81;;;-8.66;66.87
37066;BME280;22981;43.080;25.550;2024-01-11T05:16:24;100673.14;;;-8.61;66.82
37066;BME280;22981;43.080;25.550;2024-01-11T05:18:54;100667.31;;;-8.56;66.83
37066;BME280;22981;43.080;25.550;2024-01-11T05:21:22;100664.89;;;-8.50;66.77
37066;BME280;22981;43.080;25.550;2024-01-11T05:23:50;100661.91;;;-8.51;66.62
37066;BME280;22981;43.080;25.550;2024-01-11T05:26:19;100660.11;;;-8.60;66.67
37066;BME280;22981;43.080;25.550;2024-01-11T05:28:46;100664.80;;;-8.68;66.75
37066;BME280;22981;43.080;25.550;2024-01-11T05:31:15;100657.73;;;-8.74;66.86
37066;BME280;22981;43.080;25.550;2024-01-11T05:33:43;100660.91;;;-8.78;66.96
37066;BME280;22981;43.080;25.550;2024-01-11T05:36:10;100658.47;;;-8.81;67.06
37066;BME280;22981;43.080;25.550;2024-01-11T05:38:39;100654.50;;;-8.79;67.13
37066;BME280;22981;43.080;25.550;2024-01-11T05:41:07;100651.19;;;-8.73;67.12
37066;BME280;22981;43.080;25.550;2024-01-11T05:43:34;100648.69;;;-8.66;67.03
37066;BME280;22981;43.080;25.550;2024-01-11T05:46:02;100650.83;;;-8.65;66.88
37066;BME280;22981;43.080;25.550;2024-01-11T05:48:30;100646.00;;;-8.73;66.87
37066;BME280;22981;43.080;25.550;2024-01-11T05:50:57;100653.08;;;-8.76;67.02
37066;BME280;22981;43.080;25.550;2024-01-11T05:53:26;100647.22;;;-8.71;67.01
37066;BME280;22981;43.080;25.550;2024-01-11T05:55:54;100640.98;;;-8.67;66.90
37066;BME280;22981;43.080;25.550;2024-01-11T05:58:21;100641.31;;;-8.65;66.79
37066;BME280;22981;43.080;25.550;2024-01-11T06:00:49;100635.58;;;-8.63;66.72
37066;BME280;22981;43.080;25.550;2024-01-11T06:03:16;100630.25;;;-8.60;66.65
37066;BME280;22981;43.080;25.550;2024-01-11T06:05:44;100633.98;;;-8.57;66.59
37066;BME280;22981;43.080;25.550;2024-01-11T06:08:11;100626.91;;;-8.53;66.50
37066;BME280;22981;43.080;25.550;2024-01-11T06:10:40;100617.19;;;-8.58;66.46
37066;BME280;22981;43.080;25.550;2024-01-11T06:13:07;100618.24;;;-8.62;66.56
37066;BME280;22981;43.080;25.550;2024-01-11T06:15:36;100620.08;;;-8.64;66.51
37066;BME280;22981;43.080;25.550;2024-01-11T06:20:31;100612.93;;;-8.69;66.63
37066;BME280;22981;43.080;25.550;2024-01-11T06:22:58;100610.66;;;-8.67;66.64
37066;BME280;22981;43.080;25.550;2024-01-11T06:25:26;100598.52;;;-8.66;66.65
37066;BME280;22981;43.080;25.550;2024-01-11T06:27:54;100600.53;;;-8.63;66.67
37066;BME280;22981;43.080;25.550;2024-01-11T06:30:22;100605.12;;;-8.59;66.59
37066;BME280;22981;43.080;25.550;2024-01-11T06:32:49;100603.83;;;-8.59;66.56
37066;BME280;22981;43.080;25.550;2024-01-11T06:35:17;100597.42;;;-8.61;66.60
37066;BME280;22981;43.080;25.550;2024-01-11T06:37:44;100596.42;;;-8.58;66.60
37066;BME280;22981;43.080;25.550;2024-01-11T06:40:12;100588.88;;;-8.54;66.61
37066;BME280;22981;43.080;25.550;2024-01-11T06:42:39;100588.83;;;-8.44;66.62
37066;BME280;22981;43.080;25.550;2024-01-11T06:45:08;100586.69;;;-8.36;66.48
37066;BME280;22981;43.080;25.550;2024-01-11T06:47:36;100587.25;;;-8.29;66.43
37066;BME280;22981;43.080;25.550;2024-01-11T06:50:04;100586.81;;;-8.20;66.29
37066;BME280;22981;43.080;25.550;2024-01-11T06:52:31;100580.66;;;-8.09;66.28
37066;BME280;22981;43.080;25.550;2024-01-11T06:54:59;100580.68;;;-7.91;66.12
37066;BME280;22981;43.080;25.550;2024-01-11T06:57:27;100574.94;;;-7.72;65.88
37066;BME280;22981;43.080;25.550;2024-01-11T06:59:54;100573.34;;;-7.57;65.77
37066;BME280;22981;43.080;25.550;2024-01-11T07:02:22;100574.78;;;-7.43;65.56
37066;BME280;22981;43.080;25.550;2024-01-11T07:04:50;100581.75;;;-7.43;65.45
37066;BME280;22981;43.080;25.550;2024-01-11T07:07:18;100576.45;;;-7.33;65.58
37066;BME280;22981;43.080;25.550;2024-01-11T07:09:45;100575.45;;;-7.22;65.44
37066;BME280;22981;43.080;25.550;2024-01-11T07:12:13;100576.66;;;-7.20;65.38
37066;BME280;22981;43.080;25.550;2024-01-11T07:14:42;100562.64;;;-7.09;65.42
37066;BME280;22981;43.080;25.550;2024-01-11T07:17:09;100567.51;;;-7.03;65.35
37066;BME280;22981;43.080;25.550;2024-01-11T07:19:37;100561.44;;;-6.95;65.20
37066;BME280;22981;43.080;25.550;2024-01-11T07:22:04;100563.17;;;-6.87;65.10
37066;BME280;22981;43.080;25.550;2024-01-11T07:24:32;100565.01;;;-6.80;64.96
37066;BME280;22981;43.080;25.550;2024-01-11T07:27:01;100564.05;;;-6.70;64.97
37066;BME280;22981;43.080;25.550;2024-01-11T07:29:28;100561.41;;;-6.62;64.94
37066;BME280;22981;43.080;25.550;2024-01-11T07:31:56;100558.87;;;-6.47;64.94
37066;BME280;22981;43.080;25.550;2024-01-11T07:34:24;100552.73;;;-6.31;64.84
37066;BME280;22981;43.080;25.550;2024-01-11T07:36:52;100551.16;;;-6.10;64.62
37066;BME280;22981;43.080;25.550;2024-01-11T07:39:20;100558.25;;;-6.05;64.57
37066;BME280;22981;43.080;25.550;2024-01-11T07:41:49;100555.95;;;-5.95;64.64
37066;BME280;22981;43.080;25.550;2024-01-11T07:44:16;100556.63;;;-5.85;64.47
37066;BME280;22981;43.080;25.550;2024-01-11T07:46:45;100550.90;;;-5.68;64.53
37066;BME280;22981;43.080;25.550;2024-01-11T07:49:12;100550.94;;;-5.47;64.38
37066;BME280;22981;43.080;25.550;2024-01-11T07:51:40;100552.45;;;-5.29;64.04
37066;BME280;22981;43.080;25.550;2024-01-11T07:54:07;100551.63;;;-5.22;63.83
37066;BME280;22981;43.080;25.550;2024-01-11T07:56:35;100547.44;;;-5.17;63.86
37066;BME280;22981;43.080;25.550;2024-01-11T07:59:02;100545.02;;;-5.13;63.61
37066;BME280;22981;43.080;25.550;2024-01-11T08:01:31;100550.79;;;-5.08;63.71
37066;BME280;22981;43.080;25.550;2024-01-11T08:04:00;100543.02;;;-4.88;63.88
37066;BME280;22981;43.080;25.550;2024-01-11T08:06:29;100547.38;;;-4.60;63.69
37066;BME280;22981;43.080;25.550;2024-01-11T08:08:57;100541.81;;;-4.34;63.55
37066;BME280;22981;43.080;25.550;2024-01-11T08:11:24;100541.72;;;-4.06;63.22
37066;BME280;22981;43.080;25.550;2024-01-11T08:13:52;100542.65;;;-3.87;62.73
37066;BME280;22981;43.080;25.550;2024-01-11T08:16:21;100539.34;;;-3.76;62.56
37066;BME280;22981;43.080;25.550;2024-01-11T08:18:49;100543.29;;;-3.63;62.51
37066;BME280;22981;43.080;25.550;2024-01-11T08:21:17;100538.59;;;-3.45;62.32
37066;BME280;22981;43.080;25.550;2024-01-11T08:23:45;100528.80;;;-3.23;62.17
37066;BME280;22981;43.080;25.550;2024-01-11T08:26:15;100536.13;;;-3.03;61.76
37066;BME280;22981;43.080;25.550;2024-01-11T08:28:45;100530.42;;;-3.03;61.39
37066;BME280;22981;43.080;25.550;2024-01-11T08:31:12;100532.72;;;-2.98;61.20
37066;BME280;22981;43.080;25.550;2024-01-11T08:33:40;100529.30;;;-2.93;61.35
37066;BME280;22981;43.080;25.550;2024-01-11T08:36:08;100525.02;;;-2.75;61.40
37066;BME280;22981;43.080;25.550;2024-01-11T08:38:36;100528.86;;;-2.56;61.05
37066;BME280;22981;43.080;25.550;2024-01-11T08:41:05;100529.39;;;-2.27;61.08
37066;BME280;22981;43.080;25.550;2024-01-11T08:43:33;100526.74;;;-2.03;60.64
37066;BME280;22981;43.080;25.550;2024-01-11T08:46:00;100519.81;;;-1.74;60.42
37066;BME280;22981;43.080;25.550;2024-01-11T08:48:28;100519.64;;;-1.54;59.89
37066;BME280;22981;43.080;25.550;2024-01-11T08:50:56;100507.22;;;-1.46;59.50
37066;BME280;22981;43.080;25.550;2024-01-11T08:53:23;100499.72;;;-1.40;59.45
37066;BME280;22981;43.080;25.550;2024-01-11T08:55:51;100506.64;;;-1.33;59.16
37066;BME280;22981;43.080;25.550;2024-01-11T08:58:19;100488.27;;;-1.22;59.13
37066;BME280;22981;43.080;25.550;2024-01-11T09:00:47;100485.88;;;-1.14;58.92
37066;BME280;22981;43.080;25.550;2024-01-11T09:03:15;100476.09;;;-1.06;58.83
37066;BME280;22981;43.080;25.550;2024-01-11T09:05:43;100470.92;;;-0.91;58.46
37066;BME280;22981;43.080;25.550;2024-01-11T09:08:10;100468.27;;;-0.74;58.39
37066;BME280;22981;43.080;25.550;2024-01-11T09:10:38;100465.11;;;-0.45;58.36
37066;BME280;22981;43.080;25.550;2024-01-11T09:13:07;100463.49;;;-0.31;57.50
37066;BME280;22981;43.080;25.550;2024-01-11T09:15:37;100451.79;;;-0.33;57.01
37066;BME280;22981;43.080;25.550;2024-01-11T09:18:04;100446.22;;;-0.18;56.95
37066;BME280;22981;43.080;25.550;2024-01-11T09:20:32;100438.92;;;0.06;56.78
37066;BME280;22981;43.080;25.550;2024-01-11T09:23:00;100437.66;;;0.37;56.63
37066;BME280;22981;43.080;25.550;2024-01-11T09:25:30;100428.45;;;0.67;56.08
37066;BME280;22981;43.080;25.550;2024-01-11T09:27:57;100426.13;;;0.74;55.49
37066;BME280;22981;43.080;25.550;2024-01-11T09:30:25;100410.80;;;0.73;55.40
37066;BME280;22981;43.080;25.550;2024-01-11T09:32:53;100415.20;;;0.88;55.28
37066;BME280;22981;43.080;25.550;2024-01-11T09:35:24;100407.95;;;0.96;55.17
37066;BME280;22981;43.080;25.550;2024-01-11T09:37:52;100406.37;;;0.99;54.79
37066;BME280;22981;43.080;25.550;2024-01-11T09:40:20;100401.95;;;1.19;54.88
37066;BME280;22981;43.080;25.550;2024-01-11T09:42:48;100392.20;;;1.35;54.30
37066;BME280;22981;43.080;25.550;2024-01-11T09:45:17;100384.36;;;1.48;54.22
37066;BME280;22981;43.080;25.550;2024-01-11T09:47:45;100384.91;;;1.81;54.22
37066;BME280;22981;43.080;25.550;2024-01-11T09:50:15;100376.44;;;2.34;53.04
37066;BME280;22981;43.080;25.550;2024-01-11T09:52:48;100376.44;;;2.34;53.04
37066;BME280;22981;43.080;25.550;2024-01-11T09:55:17;100371.44;;;2.31;53.00
37066;BME280;22981;43.080;25.550;2024-01-11T09:57:46;100363.01;;;2.41;52.62
37066;BME280;22981;43.080;25.550;2024-01-11T10:00:16;100365.37;;;2.44;52.05
37066;BME280;22981;43.080;25.550;2024-01-11T10:02:46;100360.36;;;2.41;51.88
37066;BME280;22981;43.080;25.550;2024-01-11T10:05:15;100359.16;;;2.49;51.69
37066;BME280;22981;43.080;25.550;2024-01-11T10:07:43;100351.06;;;2.65;51.38
37066;BME280;22981;43.080;25.550;2024-01-11T10:10:13;100350.77;;;2.82;51.30
37066;BME280;22981;43.080;25.550;2024-01-11T10:12:43;100337.45;;;2.73;51.04
37066;BME280;22981;43.080;25.550;2024-01-11T10:15:11;100330.81;;;2.83;51.07
37066;BME280;22981;43.080;25.550;2024-01-11T10:17:43;100324.39;;;3.04;50.78
37066;BME280;22981;43.080;25.550;2024-01-11T10:20:14;100315.08;;;3.13;50.84
37066;BME280;22981;43.080;25.550;2024-01-11T10:22:43;100314.73;;;3.48;50.92
37066;BME280;22981;43.080;25.550;2024-01-11T10:25:14;100311.48;;;3.80;50.39
37066;BME280;22981;43.080;25.550;2024-01-11T10:27:43;100308.86;;;3.84;49.88
37066;BME280;22981;43.080;25.550;2024-01-11T10:30:13;100299.20;;;3.75;49.93
37066;BME280;22981;43.080;25.550;2024-01-11T10:32:44;100298.31;;;3.66;49.92
37066;BME280;22981;43.080;25.550;2024-01-11T10:35:12;100304.57;;;3.61;49.89
37066;BME280;22981;43.080;25.550;2024-01-11T10:37:40;100311.42;;;3.72;49.93
37066;BME280;22981;43.080;25.550;2024-01-11T10:40:09;100296.39;;;3.76;49.71
37066;BME280;22981;43.080;25.550;2024-01-11T10:42:41;100293.13;;;3.83;49.48
37066;BME280;22981;43.080;25.550;2024-01-11T10:45:13;100282.50;;;4.05;49.65
37066;BME280;22981;43.080;25.550;2024-01-11T10:47:40;100279.90;;;4.51;49.54
37066;BME280;22981;43.080;25.550;2024-01-11T10:50:09;100273.53;;;4.90;48.75
37066;BME280;22981;43.080;25.550;2024-01-11T10:52:41;100267.77;;;5.15;47.70
37066;BME280;22981;43.080;25.550;2024-01-11T10:55:08;100255.98;;;5.34;46.86
37066;BME280;22981;43.080;25.550;2024-01-11T10:57:37;100252.67;;;5.32;46.45
37066;BME280;22981;43.080;25.550;2024-01-11T11:00:06;100246.53;;;5.32;46.20
37066;BME280;22981;43.080;25.550;2024-01-11T11:02:36;100240.55;;;5.42;46.23
37066;BME280;22981;43.080;25.550;2024-01-11T11:05:05;100241.38;;;5.46;46.22
